Time;durP1;ratioP1;P1;durP2;ratioP2;P2;SDS_P1;SDS_P2;PMS_P1;PMS_P2;Temp;Humidity;BMP_temperature;BMP_pressure;BME280_temperature;BME280_humidity;BME280_pressure;Samples;Min_cycle;Max_cycle;Signal;HPM_P1;HPM_P2
2023/10/26 00:02:41;;;;;;;7.25;4.25;;;11.70;99.90;;;;;;5001921;28;20046;-75
2023/10/26 00:05:27;;;;;;;5.95;4.18;;;11.60;99.90;;;;;;5013922;28;20045;-75
2023/10/26 00:08:14;;;;;;;7.25;4.50;;;11.70;99.90;;;;;;5013453;28;20077;-75
2023/10/26 00:11:03;;;;;;;4.43;3.95;;;11.70;99.90;;;;;;5009455;28;20041;-75
2023/10/26 00:13:49;;;;;;;5.80;4.35;;;11.70;99.90;;;;;;4999627;28;20049;-75
2023/10/26 00:16:35;;;;;;;5.32;3.72;;;11.70;99.90;;;;;;5013461;28;20042;-75
2023/10/26 00:19:21;;;;;;;6.35;3.88;;;11.70;99.90;;;;;;5008599;28;20069;-74
2023/10/26 00:22:07;;;;;;;4.20;3.60;;;11.70;99.90;;;;;;5008250;28;20049;-75
2023/10/26 00:24:53;;;;;;;5.78;4.18;;;11.70;99.90;;;;;;5009952;28;20336;-75
2023/10/26 00:27:42;;;;;;;6.97;4.15;;;11.70;99.90;;;;;;5000497;28;20058;-76
2023/10/26 00:30:28;;;;;;;8.55;4.38;;;11.70;99.90;;;;;;5007233;28;20042;-76
2023/10/26 00:33:14;;;;;;;6.53;4.05;;;11.60;99.90;;;;;;5013282;28;20037;-76
2023/10/26 00:35:59;;;;;;;5.65;3.95;;;11.60;99.90;;;;;;5005499;28;20427;-75
2023/10/26 00:38:45;;;;;;;5.93;4.20;;;11.60;99.90;;;;;;4993176;28;20138;-75
2023/10/26 00:41:32;;;;;;;6.65;4.30;;;11.60;99.90;;;;;;4988977;28;20046;-75
2023/10/26 00:44:18;;;;;;;11.95;4.82;;;11.60;99.90;;;;;;5021365;28;20054;-75
2023/10/26 00:47:04;;;;;;;4.22;3.78;;;11.60;99.90;;;;;;5015236;28;20033;-75
2023/10/26 00:49:51;;;;;;;5.38;4.28;;;11.60;99.90;;;;;;5012999;28;20046;-75
2023/10/26 00:52:37;;;;;;;7.20;4.45;;;11.60;99.90;;;;;;5015490;28;20124;-75
2023/10/26 00:55:24;;;;;;;3.55;3.20;;;11.60;99.90;;;;;;5009490;28;20068;-75
2023/10/26 00:58:10;;;;;;;6.05;3.60;;;11.60;99.90;;;;;;5012891;28;20392;-74
2023/10/26 01:00:56;;;;;;;5.90;3.80;;;11.60;99.90;;;;;;5000181;28;20041;-75
2023/10/26 01:03:42;;;;;;;5.55;3.58;;;11.60;99.90;;;;;;5001096;28;20127;-75
2023/10/26 01:06:28;;;;;;;4.32;3.85;;;11.50;99.90;;;;;;4988649;28;20060;-75
2023/10/26 01:09:19;;;;;;;5.78;4.35;;;11.60;99.90;;;;;;5023063;28;20053;-75
2023/10/26 01:12:06;;;;;;;7.03;5.68;;;11.60;99.90;;;;;;4999923;28;20044;-75
2023/10/26 01:14:52;;;;;;;9.10;5.22;;;11.50;99.90;;;;;;5012985;28;20470;-75
2023/10/26 01:17:39;;;;;;;5.72;5.00;;;11.60;99.90;;;;;;5011129;28;20038;-75
2023/10/26 01:20:25;;;;;;;8.57;5.97;;;11.50;99.90;;;;;;5003977;28;20033;-75
2023/10/26 01:23:10;;;;;;;10.48;5.30;;;11.60;99.90;;;;;;5025686;28;20077;-76
2023/10/26 01:25:58;;;;;;;7.75;5.85;;;11.60;99.90;;;;;;5013694;28;20038;-75
2023/10/26 01:28:44;;;;;;;7.32;6.15;;;11.60;99.90;;;;;;4982259;28;20107;-74
2023/10/26 01:31:30;;;;;;;7.95;6.18;;;11.60;99.90;;;;;;5009434;28;20034;-75
2023/10/26 01:34:16;;;;;;;7.22;6.20;;;11.60;99.90;;;;;;4987693;28;20045;-75
2023/10/26 01:37:05;;;;;;;8.30;6.28;;;11.50;99.90;;;;;;5007234;28;20747;-75
2023/10/26 01:39:51;;;;;;;9.05;7.15;;;11.60;99.90;;;;;;5000547;28;20407;-75
2023/10/26 01:42:37;;;;;;;10.38;6.68;;;11.50;99.90;;;;;;5006412;28;20038;-75
2023/10/26 01:45:23;;;;;;;8.50;7.15;;;11.50;99.90;;;;;;5026555;28;20041;-74
2023/10/26 01:48:09;;;;;;;11.07;6.68;;;11.60;99.90;;;;;;5001107;28;20049;-75
2023/10/26 01:50:55;;;;;;;7.97;6.78;;;11.50;99.90;;;;;;4999512;28;20048;-75
2023/10/26 01:53:42;;;;;;;8.85;7.53;;;11.50;99.90;;;;;;4999533;28;20038;-75
2023/10/26 01:56:29;;;;;;;10.32;6.72;;;11.50;99.90;;;;;;5014402;28;20041;-75
2023/10/26 01:59:15;;;;;;;9.98;6.63;;;11.50;99.90;;;;;;5026160;28;20048;-75
2023/10/26 02:02:01;;;;;;;10.40;6.53;;;11.50;99.90;;;;;;5005463;28;20416;-75
2023/10/26 02:04:47;;;;;;;9.77;6.82;;;11.50;99.90;;;;;;5004300;28;20103;-75
2023/10/26 02:07:33;;;;;;;8.75;7.15;;;11.50;99.90;;;;;;4997462;28;20037;-75
2023/10/26 02:10:19;;;;;;;10.80;6.75;;;11.50;99.90;;;;;;5001215;28;20058;-75
2023/10/26 02:13:05;;;;;;;8.10;6.93;;;11.50;99.90;;;;;;5038746;28;20073;-75
2023/10/26 02:15:51;;;;;;;8.18;6.32;;;11.50;99.90;;;;;;5012512;28;20060;-76
2023/10/26 02:18:37;;;;;;;7.93;6.03;;;11.50;99.90;;;;;;4998439;28;20129;-76
2023/10/26 02:21:24;;;;;;;11.30;5.93;;;11.50;99.90;;;;;;4997116;28;20038;-75
2023/10/26 02:24:10;;;;;;;9.02;6.53;;;11.50;99.90;;;;;;5001203;28;20370;-75
2023/10/26 02:26:56;;;;;;;9.07;6.75;;;11.50;99.90;;;;;;4998555;28;20041;-75
2023/10/26 02:29:42;;;;;;;7.40;5.93;;;11.50;99.90;;;;;;4998340;28;20133;-75
2023/10/26 02:32:28;;;;;;;8.35;6.38;;;11.50;99.90;;;;;;4999680;28;20471;-75
2023/10/26 02:35:15;;;;;;;6.85;5.53;;;11.50;99.90;;;;;;5003266;28;20462;-74
2023/10/26 02:38:01;;;;;;;7.20;5.57;;;11.50;99.90;;;;;;5019172;28;20076;-74
2023/10/26 02:40:48;;;;;;;7.00;5.72;;;11.50;99.90;;;;;;4983016;28;20132;-76
2023/10/26 02:43:34;;;;;;;8.85;6.30;;;11.50;99.90;;;;;;5006318;28;20041;-75
2023/10/26 02:46:23;;;;;;;6.30;5.20;;;11.50;99.90;;;;;;5031207;28;20553;-75
2023/10/26 02:49:09;;;;;;;8.35;6.00;;;11.40;99.90;;;;;;4988807;28;20050;-75
2023/10/26 02:51:55;;;;;;;9.10;5.80;;;11.50;99.90;;;;;;4984652;28;20042;-75
2023/10/26 02:54:41;;;;;;;8.55;6.47;;;11.50;99.90;;;;;;4988469;28;20065;-75
2023/10/26 02:57:27;;;;;;;8.32;6.85;;;11.50;99.90;;;;;;4997006;28;20041;-75
2023/10/26 03:00:14;;;;;;;8.20;6.75;;;11.50;99.90;;;;;;4997532;28;20034;-75
2023/10/26 03:03:00;;;;;;;8.85;6.20;;;11.40;99.90;;;;;;5010604;28;20052;-75
2023/10/26 03:05:46;;;;;;;9.25;6.32;;;11.50;99.90;;;;;;4997976;28;20095;-75
2023/10/26 03:08:32;;;;;;;9.05;6.78;;;11.40;99.90;;;;;;5018273;28;20061;-75
2023/10/26 03:11:18;;;;;;;10.98;7.60;;;11.40;99.90;;;;;;4999514;28;20048;-75
2023/10/26 03:14:04;;;;;;;9.50;7.50;;;11.40;99.90;;;;;;5012387;28;20054;-75
2023/10/26 03:16:50;;;;;;;10.13;8.23;;;11.40;99.90;;;;;;5017115;28;20030;-75
2023/10/26 03:19:36;;;;;;;10.27;7.10;;;11.40;99.90;;;;;;4979796;28;20034;-75
2023/10/26 03:22:22;;;;;;;10.50;7.38;;;11.40;99.90;;;;;;4998669;28;20052;-75
2023/10/26 03:25:13;;;;;;;10.70;7.78;;;11.40;99.90;;;;;;5012093;28;20447;-75
2023/10/26 03:27:59;;;;;;;9.80;7.70;;;11.40;99.90;;;;;;5000029;28;20466;-75
2023/10/26 03:30:45;;;;;;;9.38;7.22;;;11.40;99.90;;;;;;4998709;28;20042;-75
2023/10/26 03:33:31;;;;;;;10.27;7.88;;;11.40;99.90;;;;;;5009939;28;20037;-76
2023/10/26 03:36:18;;;;;;;10.70;7.90;;;11.40;99.90;;;;;;5010579;28;20038;-75
2023/10/26 03:39:04;;;;;;;9.35;8.18;;;11.40;99.90;;;;;;4997567;28;20042;-75
2023/10/26 03:41:50;;;;;;;9.40;7.43;;;11.40;99.90;;;;;;5027191;28;20471;-76
2023/10/26 03:44:36;;;;;;;11.68;8.20;;;11.40;99.90;;;;;;4986749;28;20053;-75
2023/10/26 03:47:22;;;;;;;10.07;8.02;;;11.40;99.90;;;;;;5004111;28;20046;-75
2023/10/26 03:50:09;;;;;;;8.88;7.72;;;11.40;99.90;;;;;;4992764;28;20039;-75
2023/10/26 03:52:55;;;;;;;12.00;8.70;;;11.40;99.90;;;;;;4994185;28;20038;-75
2023/10/26 03:55:41;;;;;;;10.27;8.10;;;11.40;99.90;;;;;;4986323;28;20113;-75
2023/10/26 03:58:27;;;;;;;10.95;7.50;;;11.40;99.90;;;;;;5000623;28;20041;-74
2023/10/26 04:01:12;;;;;;;8.55;7.13;;;11.40;99.90;;;;;;5024954;28;20079;-75
2023/10/26 04:03:58;;;;;;;9.82;7.70;;;11.40;99.90;;;;;;4990419;28;20139;-76
2023/10/26 04:06:45;;;;;;;9.57;7.82;;;11.40;99.90;;;;;;5001352;28;20343;-75
2023/10/26 04:09:32;;;;;;;8.75;7.53;;;11.40;99.90;;;;;;5000685;28;20045;-75
2023/10/26 04:12:18;;;;;;;10.70;7.68;;;11.40;99.90;;;;;;4997717;28;20046;-75
2023/10/26 04:15:05;;;;;;;7.80;6.32;;;11.40;99.90;;;;;;4993051;28;20035;-75
2023/10/26 04:17:51;;;;;;;10.13;7.20;;;11.40;99.90;;;;;;5020276;28;20067;-75
2023/10/26 04:20:37;;;;;;;8.93;6.63;;;11.40;99.90;;;;;;5000341;28;20038;-76
2023/10/26 04:23:23;;;;;;;7.55;6.72;;;11.40;99.90;;;;;;4989002;28;20095;-76
2023/10/26 04:26:09;;;;;;;9.50;7.10;;;11.40;99.90;;;;;;4987229;28;20521;-76
2023/10/26 04:28:55;;;;;;;7.95;6.80;;;11.40;99.90;;;;;;5001243;28;20045;-76
2023/10/26 04:31:41;;;;;;;9.55;8.55;;;11.40;99.90;;;;;;5006409;28;20128;-76
2023/10/26 04:34:27;;;;;;;11.60;7.93;;;11.40;99.90;;;;;;4988069;28;20049;-76
2023/10/26 04:37:13;;;;;;;10.10;7.95;;;11.40;99.90;;;;;;4998845;28;20049;-76
2023/10/26 04:39:59;;;;;;;12.57;8.70;;;11.40;99.90;;;;;;5009776;28;20033;-76
2023/10/26 04:42:45;;;;;;;9.05;6.93;;;11.40;99.90;;;;;;5016105;28;20053;-75
2023/10/26 04:45:31;;;;;;;9.30;7.60;;;11.40;99.90;;;;;;4999988;28;20105;-76
2023/10/26 04:48:17;;;;;;;10.55;7.45;;;11.40;99.90;;;;;;5000053;28;20057;-75
2023/10/26 04:51:03;;;;;;;8.43;6.45;;;11.30;99.90;;;;;;4981106;28;20142;-76
2023/10/26 04:53:49;;;;;;;9.88;7.22;;;11.30;99.90;;;;;;4983162;28;20038;-78
2023/10/26 04:56:35;;;;;;;8.80;5.93;;;11.30;99.90;;;;;;5022033;28;20038;-76
2023/10/26 04:59:21;;;;;;;8.18;6.07;;;11.30;99.90;;;;;;4999841;28;20038;-76
2023/10/26 05:02:07;;;;;;;8.27;5.70;;;11.30;99.90;;;;;;5013417;28;20042;-76
2023/10/26 05:04:53;;;;;;;6.68;5.68;;;11.30;99.90;;;;;;4994440;28;20054;-76
2023/10/26 05:07:39;;;;;;;8.05;5.80;;;11.30;99.90;;;;;;5008178;28;20077;-76
2023/10/26 05:10:25;;;;;;;8.07;5.80;;;11.30;99.90;;;;;;5008192;28;20055;-76
2023/10/26 05:13:11;;;;;;;8.60;5.60;;;11.30;99.90;;;;;;5024717;28;20069;-76
2023/10/26 05:15:57;;;;;;;9.77;5.70;;;11.30;99.90;;;;;;5009335;28;20033;-76
2023/10/26 05:18:43;;;;;;;9.93;6.00;;;11.30;99.90;;;;;;4998590;28;20037;-76
2023/10/26 05:21:29;;;;;;;7.25;5.78;;;11.30;99.90;;;;;;5000884;28;20050;-76
2023/10/26 05:24:15;;;;;;;6.22;5.32;;;11.30;99.90;;;;;;5000680;28;20042;-76
2023/10/26 05:27:01;;;;;;;7.05;6.05;;;11.30;99.90;;;;;;5013662;28;20058;-76
2023/10/26 05:29:47;;;;;;;9.25;5.82;;;11.30;99.90;;;;;;4983230;28;20057;-75
2023/10/26 05:32:33;;;;;;;6.80;5.40;;;11.30;99.90;;;;;;5013369;28;20363;-76
2023/10/26 05:35:19;;;;;;;6.95;5.63;;;11.30;99.90;;;;;;4998963;28;20443;-75
2023/10/26 05:38:05;;;;;;;7.88;5.82;;;11.30;99.90;;;;;;4985338;28;20091;-75
2023/10/26 05:40:55;;;;;;;7.70;5.63;;;11.30;99.90;;;;;;5000635;28;20038;-75
2023/10/26 05:43:41;;;;;;;8.00;5.93;;;11.30;99.90;;;;;;5015829;28;20038;-75
2023/10/26 05:46:27;;;;;;;9.90;6.10;;;11.30;99.90;;;;;;5006476;28;20056;-74
2023/10/26 05:49:13;;;;;;;7.60;5.82;;;11.30;99.90;;;;;;4991793;28;20064;-75
2023/10/26 05:52:01;;;;;;;7.28;5.43;;;11.30;99.90;;;;;;4997920;28;20065;-76
2023/10/26 05:54:48;;;;;;;7.07;5.50;;;11.30;99.90;;;;;;5001227;28;20100;-76
2023/10/26 05:57:34;;;;;;;6.72;5.45;;;11.30;99.90;;;;;;5020253;28;20050;-76
2023/10/26 06:00:20;;;;;;;9.90;5.70;;;11.30;99.90;;;;;;5000031;28;20084;-75
2023/10/26 06:03:06;;;;;;;6.78;5.57;;;11.30;99.90;;;;;;4989482;28;20077;-75
2023/10/26 06:05:58;;;;;;;7.15;5.45;;;11.30;99.90;;;;;;5006654;28;20045;-76
2023/10/26 06:08:44;;;;;;;7.00;5.50;;;11.30;99.90;;;;;;4987747;28;20133;-75
2023/10/26 06:11:30;;;;;;;8.45;5.47;;;11.30;99.90;;;;;;4979853;28;20038;-75
2023/10/26 06:14:19;;;;;;;6.70;5.43;;;11.30;99.90;;;;;;5007059;28;20039;-75
2023/10/26 06:17:05;;;;;;;8.27;5.35;;;11.30;99.90;;;;;;5041022;28;20044;-75
2023/10/26 06:19:56;;;;;;;6.88;4.97;;;11.30;99.90;;;;;;5003853;28;20042;-75
2023/10/26 06:22:42;;;;;;;6.97;5.13;;;11.30;99.90;;;;;;5016237;28;20044;-75
2023/10/26 06:25:28;;;;;;;8.82;5.55;;;11.30;99.90;;;;;;4982268;28;20033;-76
2023/10/26 06:28:15;;;;;;;6.05;4.57;;;11.30;99.90;;;;;;5020891;28;20125;-75
2023/10/26 06:31:08;;;;;;;8.48;5.03;;;11.30;99.90;;;;;;4991139;28;20034;-77
2023/10/26 06:33:54;;;;;;;7.97;5.38;;;11.30;99.90;;;;;;5008659;28;20067;-76
2023/10/26 06:36:40;;;;;;;7.13;5.15;;;11.40;99.90;;;;;;4999658;28;20041;-76
2023/10/26 06:39:26;;;;;;;8.95;5.72;;;11.40;99.90;;;;;;4985198;28;20382;-76
2023/10/26 06:42:12;;;;;;;10.68;6.90;;;11.40;99.90;;;;;;5006841;28;20091;-76
2023/10/26 06:44:58;;;;;;;9.95;6.03;;;11.40;99.90;;;;;;5010773;28;20473;-75
2023/10/26 06:47:44;;;;;;;11.30;5.80;;;11.40;99.90;;;;;;5003442;28;20046;-76
2023/10/26 06:50:30;;;;;;;9.23;5.93;;;11.40;99.90;;;;;;4999776;28;20149;-75
2023/10/26 06:53:16;;;;;;;12.02;6.03;;;11.40;99.90;;;;;;4994043;28;20037;-75
2023/10/26 06:56:10;;;;;;;10.50;7.57;;;11.40;99.90;;;;;;4998709;28;20038;-75
2023/10/26 06:58:56;;;;;;;10.90;7.63;;;11.40;99.90;;;;;;4992473;28;20428;-77
2023/10/26 07:01:42;;;;;;;12.00;7.82;;;11.50;99.90;;;;;;4993524;28;20037;-75
2023/10/26 07:04:28;;;;;;;13.18;7.38;;;11.50;99.90;;;;;;4982879;28;20108;-77
2023/10/26 07:07:14;;;;;;;12.50;8.00;;;11.60;99.90;;;;;;4998919;28;20145;-75
2023/10/26 07:10:01;;;;;;;13.43;7.60;;;11.50;99.90;;;;;;4996297;28;20074;-75
2023/10/26 07:12:47;;;;;;;14.50;8.25;;;11.50;99.90;;;;;;4988133;28;20430;-75
2023/10/26 07:15:34;;;;;;;11.30;7.03;;;11.60;99.90;;;;;;5004342;28;20050;-75
2023/10/26 07:18:20;;;;;;;11.07;7.78;;;11.60;99.90;;;;;;5006595;28;20053;-77
2023/10/26 07:21:07;;;;;;;10.35;7.32;;;11.60;99.90;;;;;;4988756;28;20084;-75
2023/10/26 07:23:53;;;;;;;12.00;7.57;;;11.60;99.90;;;;;;4985560;28;20042;-74
2023/10/26 07:26:39;;;;;;;11.85;7.72;;;11.50;99.90;;;;;;4970978;28;20053;-75
2023/10/26 07:29:25;;;;;;;12.20;8.10;;;11.60;99.90;;;;;;5000443;28;20049;-76
2023/10/26 07:32:11;;;;;;;14.63;8.40;;;11.60;99.90;;;;;;4997375;28;20125;-76
2023/10/26 07:34:58;;;;;;;12.40;8.70;;;11.50;99.90;;;;;;5010461;28;20810;-77
2023/10/26 07:37:45;;;;;;;11.50;7.70;;;11.60;99.90;;;;;;4982490;28;20042;-75
2023/10/26 07:40:31;;;;;;;12.35;7.80;;;11.60;99.90;;;;;;5010494;28;20129;-76
2023/10/26 07:43:17;;;;;;;10.93;8.05;;;11.60;99.90;;;;;;5009293;28;20034;-76
2023/10/26 07:46:04;;;;;;;14.07;7.38;;;11.60;99.90;;;;;;4999201;28;20097;-76
2023/10/26 07:48:50;;;;;;;14.57;8.25;;;11.60;99.90;;;;;;5016144;28;20072;-75
2023/10/26 07:51:35;;;;;;;12.63;7.20;;;11.60;99.90;;;;;;5017561;28;20467;-76
2023/10/26 07:54:21;;;;;;;13.90;7.93;;;11.60;99.90;;;;;;4970506;28;20034;-76
2023/10/26 07:57:07;;;;;;;13.85;8.00;;;11.70;99.90;;;;;;5015067;28;20348;-76
2023/10/26 07:59:54;;;;;;;12.57;8.50;;;11.70;99.90;;;;;;5002497;28;20107;-76
2023/10/26 08:02:40;;;;;;;14.55;9.48;;;11.60;99.90;;;;;;5002950;28;20046;-75
2023/10/26 08:05:26;;;;;;;12.88;7.65;;;11.60;99.90;;;;;;5002351;28;20046;-77
2023/10/26 08:08:12;;;;;;;13.57;8.63;;;11.60;99.90;;;;;;5002057;28;20074;-75
2023/10/26 08:11:10;;;;;;;12.73;8.05;;;11.60;99.90;;;;;;4988054;28;20054;-77
2023/10/26 08:13:56;;;;;;;13.27;8.38;;;11.60;99.90;;;;;;4970283;28;20108;-75
2023/10/26 08:16:42;;;;;;;11.73;5.63;;;11.50;99.90;;;;;;5020007;28;20038;-75
2023/10/26 08:19:28;;;;;;;9.52;6.22;;;11.50;99.90;;;;;;5019927;28;20046;-75
2023/10/26 08:22:14;;;;;;;10.82;6.70;;;11.60;99.90;;;;;;5016261;28;20371;-75
2023/10/26 08:25:00;;;;;;;7.97;6.07;;;11.60;99.90;;;;;;4999283;28;20057;-75
2023/10/26 08:27:46;;;;;;;10.60;5.95;;;11.70;99.90;;;;;;5003155;28;20060;-76
2023/10/26 08:30:32;;;;;;;8.85;6.55;;;11.70;99.90;;;;;;4988598;28;20121;-76
2023/10/26 08:33:18;;;;;;;9.77;6.32;;;11.70;99.90;;;;;;4985401;28;20404;-75
2023/10/26 08:36:05;;;;;;;11.20;7.63;;;11.70;99.90;;;;;;5025502;28;20045;-77
2023/10/26 08:38:51;;;;;;;8.55;6.25;;;11.70;99.90;;;;;;4994440;28;20077;-75
2023/10/26 08:41:37;;;;;;;10.57;5.97;;;11.80;99.90;;;;;;4997359;28;20638;-76
2023/10/26 08:44:24;;;;;;;11.25;7.38;;;11.80;99.90;;;;;;5018957;28;20042;-76
2023/10/26 08:47:11;;;;;;;10.25;6.38;;;11.70;99.90;;;;;;5010302;28;20042;-75
2023/10/26 08:49:58;;;;;;;10.07;6.32;;;11.70;99.90;;;;;;5013663;28;20556;-76
2023/10/26 08:52:44;;;;;;;8.25;5.82;;;11.80;99.90;;;;;;5000725;28;20111;-76
2023/10/26 08:55:30;;;;;;;9.65;6.00;;;11.70;99.90;;;;;;5018819;28;20034;-75
2023/10/26 08:58:16;;;;;;;8.55;6.15;;;11.70;99.90;;;;;;5015736;28;20049;-76
2023/10/26 09:01:04;;;;;;;10.00;6.05;;;11.80;99.90;;;;;;4973674;28;20124;-76
2023/10/26 09:03:50;;;;;;;9.27;5.70;;;11.70;99.90;;;;;;5017677;28;20045;-74
2023/10/26 09:06:47;;;;;;;10.00;5.90;;;11.80;99.90;;;;;;5018061;28;20628;-76
2023/10/26 09:09:45;;;;;;;7.22;4.78;;;11.80;99.90;;;;;;5001588;28;20046;-77
2023/10/26 09:12:31;;;;;;;10.68;6.15;;;11.80;99.90;;;;;;5008349;28;20031;-77
2023/10/26 09:15:17;;;;;;;7.50;5.20;;;11.80;99.90;;;;;;4998983;28;20533;-76
2023/10/26 09:18:08;;;;;;;10.23;5.57;;;11.80;99.90;;;;;;5018768;28;20041;-75
2023/10/26 09:21:05;;;;;;;9.80;5.15;;;11.80;99.90;;;;;;5018041;28;20064;-76
2023/10/26 09:23:51;;;;;;;11.07;5.57;;;11.80;99.90;;;;;;5016803;28;20034;-75
2023/10/26 09:26:40;;;;;;;7.40;5.10;;;11.90;99.90;;;;;;5001336;28;20459;-75
2023/10/26 09:29:38;;;;;;;7.15;4.72;;;11.90;99.90;;;;;;5002462;28;20056;-76
2023/10/26 09:32:31;;;;;;;9.45;5.72;;;11.80;99.90;;;;;;5010124;28;20092;-75
2023/10/26 09:35:30;;;;;;;7.43;4.85;;;11.80;99.90;;;;;;5027005;28;20044;-77
2023/10/26 09:38:17;;;;;;;13.88;4.97;;;11.80;99.90;;;;;;4998572;28;20117;-77
2023/10/26 09:41:11;;;;;;;6.93;4.90;;;11.80;99.90;;;;;;5014497;28;20438;-75
2023/10/26 09:44:03;;;;;;;7.80;4.40;;;11.80;99.90;;;;;;4988908;28;20180;-75
2023/10/26 09:46:49;;;;;;;8.85;4.40;;;11.80;99.90;;;;;;5015085;28;20029;-75
2023/10/26 09:49:36;;;;;;;7.15;3.97;;;11.80;99.90;;;;;;4967369;28;20054;-76
2023/10/26 09:52:22;;;;;;;4.63;3.55;;;11.80;99.90;;;;;;5002572;28;20129;-76
2023/10/26 09:55:10;;;;;;;10.13;4.63;;;11.90;99.90;;;;;;4980899;28;20042;-76
2023/10/26 09:58:01;;;;;;;5.03;4.25;;;11.90;99.90;;;;;;5001883;28;20037;-76
2023/10/26 10:00:47;;;;;;;7.50;4.68;;;11.90;99.90;;;;;;4996602;28;20474;-75
2023/10/26 10:03:43;;;;;;;8.40;4.05;;;11.90;99.90;;;;;;5000090;28;20038;-76
2023/10/26 10:06:48;;;;;;;7.45;3.88;;;12.00;99.90;;;;;;4983946;28;20030;-76
2023/10/26 10:10:00;;;;;;;5.60;3.30;;;12.00;99.90;;;;;;5019023;28;20049;-76
2023/10/26 10:12:52;;;;;;;7.05;3.08;;;12.00;99.90;;;;;;5013271;28;20069;-77
2023/10/26 10:15:39;;;;;;;7.38;3.47;;;12.00;99.90;;;;;;5000748;28;20033;-75
2023/10/26 10:18:25;;;;;;;6.65;3.88;;;12.00;99.90;;;;;;4987041;28;20121;-77
2023/10/26 10:21:34;;;;;;;7.13;3.55;;;12.00;99.90;;;;;;5010290;28;20042;-75
2023/10/26 10:24:39;;;;;;;7.63;3.60;;;12.00;99.90;;;;;;5035729;28;20045;-75
2023/10/26 10:27:25;;;;;;;6.60;3.67;;;12.00;99.90;;;;;;4999741;28;20367;-75
2023/10/26 10:30:11;;;;;;;5.13;3.25;;;12.00;99.90;;;;;;4981087;28;20042;-75
2023/10/26 10:32:57;;;;;;;7.55;3.60;;;12.00;99.90;;;;;;5012073;28;20837;-75
2023/10/26 10:35:45;;;;;;;6.78;3.97;;;12.00;99.90;;;;;;5013559;28;20108;-75
2023/10/26 10:38:31;;;;;;;3.85;3.13;;;12.00;99.90;;;;;;5029262;28;20038;-75
2023/10/26 10:41:18;;;;;;;5.90;4.38;;;12.00;99.90;;;;;;4997066;28;20037;-76
2023/10/26 10:44:04;;;;;;;5.47;3.80;;;12.00;99.90;;;;;;5013329;28;20045;-76
2023/10/26 10:46:50;;;;;;;6.28;4.05;;;12.00;99.90;;;;;;4999842;28;20041;-76
2023/10/26 10:49:36;;;;;;;6.68;4.18;;;12.00;99.90;;;;;;4999120;28;20054;-77
2023/10/26 10:52:22;;;;;;;9.95;4.85;;;12.10;99.90;;;;;;5002331;28;20087;-77
2023/10/26 10:55:11;;;;;;;7.25;4.75;;;12.00;99.90;;;;;;5016605;28;20107;-76
2023/10/26 10:58:01;;;;;;;8.63;4.80;;;12.10;99.90;;;;;;4993634;28;20038;-77
2023/10/26 11:00:49;;;;;;;7.03;5.20;;;12.10;99.90;;;;;;4999016;28;20069;-77
2023/10/26 11:03:35;;;;;;;;;;;12.10;99.90;;;;;;5018838;28;20042;-77
2023/10/26 11:06:21;;;;;;;5.18;4.40;;;12.10;99.90;;;;;;5019243;28;19913;-78
2023/10/26 11:09:20;;;;;;;5.65;4.63;;;12.10;99.90;;;;;;4990470;28;20046;-76
2023/10/26 11:12:10;;;;;;;6.00;4.15;;;12.10;99.90;;;;;;5008159;28;20096;-77
2023/10/26 11:14:56;;;;;;;8.05;5.13;;;12.10;99.90;;;;;;5006800;28;20045;-77
2023/10/26 11:17:42;;;;;;;6.68;4.43;;;12.10;99.90;;;;;;5005401;28;20049;-78
2023/10/26 11:20:42;;;;;;;6.10;4.18;;;12.10;99.90;;;;;;5010486;28;20366;-78
2023/10/26 11:23:28;;;;;;;7.53;4.13;;;12.10;99.90;;;;;;5018160;28;20052;-77
2023/10/26 11:26:14;;;;;;;7.00;4.00;;;12.10;99.90;;;;;;5018551;28;20038;-77
2023/10/26 11:29:03;;;;;;;5.47;4.28;;;12.10;99.90;;;;;;4998656;28;20450;-77
2023/10/26 11:31:49;;;;;;;9.65;4.82;;;12.10;99.90;;;;;;5016986;28;20053;-77
2023/10/26 11:34:35;;;;;;;5.53;3.72;;;12.10;99.90;;;;;;5002129;28;20046;-78
2023/10/26 11:37:27;;;;;;;5.88;4.50;;;12.10;99.90;;;;;;5016194;28;20069;-77
2023/10/26 11:40:13;;;;;;;6.03;4.38;;;12.00;99.90;;;;;;4991917;28;20141;-77
2023/10/26 11:43:00;;;;;;;6.15;4.22;;;12.00;99.90;;;;;;5003154;28;20046;-76
2023/10/26 11:45:47;;;;;;;7.40;4.40;;;12.10;99.90;;;;;;5017352;28;20042;-77
2023/10/26 11:48:34;;;;;;;5.50;4.57;;;12.00;99.90;;;;;;5004404;28;20050;-77
2023/10/26 11:51:20;;;;;;;7.65;4.50;;;12.00;99.90;;;;;;5004127;28;20037;-78
2023/10/26 11:54:12;;;;;;;6.75;4.60;;;12.00;99.90;;;;;;5005277;28;20045;-77
2023/10/26 11:56:58;;;;;;;5.75;4.85;;;12.00;99.90;;;;;;5009003;28;20124;-77
2023/10/26 11:59:44;;;;;;;5.22;4.70;;;12.00;99.90;;;;;;4999799;28;20449;-78
2023/10/26 12:02:30;;;;;;;6.57;5.20;;;12.00;99.90;;;;;;5018619;28;20052;-77
2023/10/26 12:05:19;;;;;;;9.68;4.60;;;11.90;99.90;;;;;;4988810;28;20053;-77
2023/10/26 12:08:05;;;;;;;10.07;4.72;;;11.90;99.90;;;;;;5006420;28;20053;-77
2023/10/26 12:10:51;;;;;;;7.75;4.68;;;11.90;99.90;;;;;;5001945;28;20101;-77
2023/10/26 12:13:37;;;;;;;6.75;4.28;;;12.00;99.90;;;;;;5003308;28;20038;-77
2023/10/26 12:16:25;;;;;;;6.45;4.22;;;11.90;99.90;;;;;;4999221;28;20077;-79
2023/10/26 12:19:11;;;;;;;8.00;4.20;;;12.00;99.90;;;;;;4991886;28;20037;-77
2023/10/26 12:21:58;;;;;;;8.05;4.68;;;12.00;99.90;;;;;;5018832;28;20140;-77
2023/10/26 12:24:44;;;;;;;7.07;4.20;;;12.00;99.90;;;;;;5014947;28;20095;-77
2023/10/26 12:27:31;;;;;;;4.93;4.10;;;11.90;99.90;;;;;;4996493;28;20070;-77
2023/10/26 12:30:17;;;;;;;5.85;4.78;;;12.00;99.90;;;;;;5002399;28;20109;-77
2023/10/26 12:33:03;;;;;;;7.35;4.38;;;12.00;99.90;;;;;;5002332;28;20072;-77
2023/10/26 12:35:50;;;;;;;5.85;4.90;;;11.90;99.90;;;;;;5007586;28;20042;-77
2023/10/26 12:38:36;;;;;;;7.07;3.73;;;11.90;99.90;;;;;;5005147;28;20086;-77
2023/10/26 12:41:22;;;;;;;6.45;4.28;;;12.00;99.90;;;;;;5035893;28;20613;-78
2023/10/26 12:44:08;;;;;;;7.95;4.72;;;12.00;99.90;;;;;;5016260;28;20072;-78
2023/10/26 12:46:54;;;;;;;5.38;4.28;;;11.90;99.90;;;;;;5002743;28;20077;-77
2023/10/26 12:49:40;;;;;;;8.48;5.10;;;11.90;99.90;;;;;;4986587;28;20383;-77
2023/10/26 12:52:26;;;;;;;7.25;4.45;;;11.90;99.90;;;;;;5000841;28;20042;-77
2023/10/26 12:55:12;;;;;;;6.78;4.15;;;11.90;99.90;;;;;;4985103;28;20034;-77
2023/10/26 12:57:58;;;;;;;5.80;4.63;;;11.90;99.90;;;;;;5010006;28;20038;-77
2023/10/26 13:00:45;;;;;;;5.63;4.70;;;11.90;99.90;;;;;;5016178;28;20072;-77
2023/10/26 13:03:31;;;;;;;11.80;4.60;;;11.90;99.90;;;;;;4993984;28;20124;-78
2023/10/26 13:06:17;;;;;;;7.07;4.50;;;12.00;99.90;;;;;;4990571;28;20042;-77
2023/10/26 13:09:04;;;;;;;6.78;4.43;;;12.00;99.90;;;;;;5007710;28;20037;-77
2023/10/26 13:11:50;;;;;;;6.60;4.45;;;12.00;99.90;;;;;;4987883;28;20053;-77
2023/10/26 13:14:36;;;;;;;7.03;4.57;;;12.00;99.90;;;;;;5015938;28;20034;-77
2023/10/26 13:17:22;;;;;;;8.30;4.30;;;12.00;99.90;;;;;;5015661;28;20121;-77
2023/10/26 13:20:08;;;;;;;7.97;5.30;;;12.00;99.90;;;;;;4997326;28;20050;-76
2023/10/26 13:22:54;;;;;;;6.45;4.25;;;12.00;99.90;;;;;;5014997;28;20129;-77
2023/10/26 13:25:40;;;;;;;4.93;4.10;;;12.00;99.90;;;;;;5008773;28;20041;-77
2023/10/26 13:28:26;;;;;;;7.72;3.97;;;12.00;99.90;;;;;;4995880;28;20482;-77
2023/10/26 13:31:12;;;;;;;4.35;3.47;;;12.00;99.90;;;;;;5022074;28;20088;-77
2023/10/26 13:33:58;;;;;;;4.35;3.17;;;12.00;99.90;;;;;;5002087;28;20064;-77
2023/10/26 13:36:44;;;;;;;3.58;2.53;;;12.00;99.90;;;;;;5005416;28;20447;-75
2023/10/26 13:39:30;;;;;;;4.15;2.80;;;12.10;99.90;;;;;;5009381;28;20073;-76
2023/10/26 13:42:16;;;;;;;3.67;2.70;;;12.10;99.90;;;;;;4988953;28;20052;-76
2023/10/26 13:45:02;;;;;;;4.55;2.30;;;12.10;99.90;;;;;;5011848;28;20192;-75
2023/10/26 13:47:48;;;;;;;5.82;2.75;;;12.10;99.90;;;;;;5012224;28;20049;-75
2023/10/26 13:50:38;;;;;;;4.82;2.40;;;12.10;99.90;;;;;;5012338;28;20103;-75
2023/10/26 13:53:25;;;;;;;4.22;2.15;;;12.10;99.90;;;;;;5013229;28;20124;-76
2023/10/26 13:56:11;;;;;;;3.90;2.22;;;12.10;99.90;;;;;;5000765;28;20065;-76
2023/10/26 13:58:58;;;;;;;4.38;2.17;;;12.10;99.90;;;;;;4987312;28;20049;-74
2023/10/26 14:01:44;;;;;;;3.67;2.30;;;12.10;99.90;;;;;;5022300;28;20057;-75
2023/10/26 14:04:34;;;;;;;3.80;2.03;;;12.20;99.90;;;;;;4995336;28;20083;-75
2023/10/26 14:07:20;;;;;;;4.03;2.28;;;12.20;99.90;;;;;;5007443;28;20043;-75
2023/10/26 14:10:06;;;;;;;3.35;1.92;;;12.10;99.90;;;;;;5018105;28;20796;-75
2023/10/26 14:12:53;;;;;;;3.30;2.25;;;12.10;99.90;;;;;;5002085;28;20046;-75
2023/10/26 14:15:39;;;;;;;2.60;2.05;;;12.10;99.90;;;;;;5025650;28;20044;-75
2023/10/26 14:18:25;;;;;;;4.68;2.13;;;12.10;99.90;;;;;;4999990;28;20034;-75
2023/10/26 14:21:11;;;;;;;4.60;2.40;;;12.00;99.90;;;;;;4984084;28;20745;-75
2023/10/26 14:23:57;;;;;;;4.57;2.10;;;12.00;99.90;;;;;;4990160;28;20034;-75
2023/10/26 14:26:43;;;;;;;2.90;2.22;;;12.00;99.90;;;;;;4985101;28;20053;-75
2023/10/26 14:29:29;;;;;;;4.72;2.70;;;12.00;99.90;;;;;;4988804;28;20045;-75